Pine Ridge Reservation, South Dakota
Current Conditions -  °F | °C
As of 8:52 PM on Wednesday 28 Jan 2015 (Local Time) from KIEN Reporting Station
Clear Clear  
Wind Chill: 22°   Ceiling: Unl
Heat Index: 34°   Visibility: 10mi
Dew Point: 27°   Wind: 23mph
Humidity: 75%   Direction: 360°N
Pressure: 30.24"   Gusts: 36mph
Location:  43.3266°N, 102.736°W
Report Text: KIEN 290352Z AUTO 36020G31KT 10SM CLR 01/M03 A3024 RMK AO2 PK WND 36031/0346 SLP254 T00111028
Loading
Personal Weather Stations






























Interactive Weather Map New forecast layout! Learn more

10-Day Weather Forecast

Advertisements
Track Severe Weather on mobile